createdAt,value
2018-07-03T00:00:13.863Z,79.36
2018-07-03T00:00:45.047Z,78.75
2018-07-03T00:01:16.221Z,79.39
2018-07-03T00:01:47.425Z,79.04
2018-07-03T00:02:19.825Z,79.21
2018-07-03T00:02:51.005Z,79.76
2018-07-03T00:03:22.250Z,79.99
2018-07-03T00:03:53.521Z,79.49
2018-07-03T00:04:24.764Z,79.82
2018-07-03T00:04:55.946Z,80.27
2018-07-03T00:05:27.125Z,80.21
2018-07-03T00:05:58.314Z,79.97
2018-07-03T00:06:30.165Z,80.11
2018-07-03T00:07:01.409Z,80.05
2018-07-03T00:07:32.585Z,80.08
2018-07-03T00:08:03.764Z,80.07
2018-07-03T00:08:34.944Z,80.87
2018-07-03T00:09:06.214Z,80.87
2018-07-03T00:09:37.400Z,81.07
2018-07-03T00:10:08.602Z,81.06
2018-07-03T00:10:39.793Z,80.33
2018-07-03T00:11:11.089Z,80.54
2018-07-03T00:11:42.316Z,80.82
2018-07-03T00:12:13.510Z,80.97
2018-07-03T00:12:44.736Z,80.64
2018-07-03T00:13:15.919Z,80.48
2018-07-03T00:13:47.153Z,80.40
2018-07-03T00:14:18.392Z,80.25
2018-07-03T00:14:50.316Z,79.93
2018-07-03T00:15:21.497Z,80.04
2018-07-03T00:15:52.673Z,79.98
2018-07-03T00:16:23.884Z,80.59
2018-07-03T00:16:55.056Z,80.64
2018-07-03T00:17:26.279Z,80.55
2018-07-03T00:17:57.488Z,80.28
2018-07-03T00:18:28.668Z,79.64
2018-07-03T00:18:59.852Z,79.72
2018-07-03T00:19:31.076Z,79.82
2018-07-03T00:20:02.888Z,78.92
2018-07-03T00:20:34.981Z,79.49
2018-07-03T00:21:06.869Z,79.58
2018-07-03T00:21:38.059Z,79.64
2018-07-03T00:22:09.289Z,78.98
2018-07-03T00:22:41.650Z,78.95
2018-07-03T00:23:12.824Z,79.09
2018-07-03T00:23:44.605Z,79.08
2018-07-03T00:24:15.782Z,78.99
2018-07-03T00:24:47.021Z,78.62
2018-07-03T00:25:18.208Z,79.09
2018-07-03T00:25:49.376Z,79.68
2018-07-03T00:26:20.558Z,78.93
2018-07-03T00:26:51.740Z,79.94
2018-07-03T00:27:22.920Z,79.10
2018-07-03T00:27:54.105Z,79.49
2018-07-03T00:28:26.483Z,79.14
2018-07-03T00:28:57.660Z,79.48
2018-07-03T00:29:28.840Z,79.27
2018-07-03T00:30:00.078Z,79.62
2018-07-03T00:30:31.322Z,79.17
2018-07-03T00:31:02.503Z,79.22
2018-07-03T00:31:33.752Z,79.83
2018-07-03T00:32:04.940Z,79.60
2018-07-03T00:32:36.108Z,79.22
2018-07-03T00:33:07.290Z,79.77
2018-07-03T00:33:38.570Z,79.09
2018-07-03T00:34:09.764Z,79.66
2018-07-03T00:34:41.001Z,78.88
2018-07-03T00:35:12.190Z,78.58
2018-07-03T00:35:43.377Z,79.14
2018-07-03T00:36:14.609Z,78.68
2018-07-03T00:36:45.797Z,78.73
2018-07-03T00:37:16.970Z,79.34
2018-07-03T00:37:48.197Z,79.59
2018-07-03T00:38:19.520Z,79.21
2018-07-03T00:38:50.696Z,78.99
2018-07-03T00:39:21.933Z,79.28
2018-07-03T00:39:53.129Z,79.44
2018-07-03T00:40:24.330Z,79.57
2018-07-03T00:40:55.504Z,79.36
2018-07-03T00:41:26.716Z,78.73
2018-07-03T00:41:57.896Z,79.03
2018-07-03T00:42:29.077Z,79.06
2018-07-03T00:43:00.245Z,78.23
2018-07-03T00:43:31.422Z,79.04
2018-07-03T00:44:02.592Z,78.66
2018-07-03T00:44:33.804Z,78.66
2018-07-03T00:45:05.049Z,79.08
2018-07-03T00:45:36.241Z,78.54
2018-07-03T00:46:07.483Z,78.37
2018-07-03T00:46:38.724Z,78.39
2018-07-03T00:47:09.963Z,78.10
2018-07-03T00:47:41.160Z,78.66
2018-07-03T00:48:12.338Z,78.57
2018-07-03T00:48:43.508Z,78.56
2018-07-03T00:49:14.738Z,77.76
2018-07-03T00:49:45.980Z,78.04
2018-07-03T00:50:17.162Z,78.22
2018-07-03T00:50:48.332Z,78.38
2018-07-03T00:51:19.609Z,77.87
2018-07-03T00:51:50.792Z,77.82
2018-07-03T00:52:21.980Z,78.41
2018-07-03T00:52:53.149Z,77.82
2018-07-03T00:53:24.332Z,77.70
2018-07-03T00:53:55.501Z,77.90
2018-07-03T00:54:26.684Z,77.19
2018-07-03T00:54:57.917Z,78.01
2018-07-03T00:55:29.155Z,77.67
2018-07-03T00:56:00.341Z,77.48
2018-07-03T00:56:32.169Z,78.44
2018-07-03T00:57:03.361Z,78.29
2018-07-03T00:57:34.545Z,79.17
2018-07-03T00:58:05.736Z,78.78
2018-07-03T00:58:36.913Z,79.62
2018-07-03T00:59:08.084Z,79.78
2018-07-03T00:59:39.309Z,79.87
2018-07-03T01:00:10.528Z,80.58
2018-07-03T01:00:41.711Z,80.24
2018-07-03T01:01:12.886Z,80.17
2018-07-03T01:01:44.063Z,80.33
2018-07-03T01:02:15.236Z,80.10
2018-07-03T01:02:46.470Z,80.12
2018-07-03T01:03:17.645Z,79.68
2018-07-03T01:03:48.877Z,79.57
2018-07-03T01:04:20.107Z,80.23
2018-07-03T01:04:51.296Z,80.34
2018-07-03T01:05:22.510Z,80.42
2018-07-03T01:05:53.684Z,80.44
2018-07-03T01:06:24.854Z,79.79
2018-07-03T01:06:56.078Z,79.89
2018-07-03T01:07:27.323Z,80.56
2018-07-03T01:07:58.533Z,80.70
2018-07-03T01:08:29.701Z,80.44
2018-07-03T01:09:00.876Z,79.88
2018-07-03T01:09:32.100Z,80.11
2018-07-03T01:10:03.296Z,79.76
2018-07-03T01:10:34.464Z,80.28
2018-07-03T01:11:05.697Z,80.17
2018-07-03T01:11:36.935Z,79.87
2018-07-03T01:12:08.112Z,79.33
2018-07-03T01:12:39.283Z,79.12
2018-07-03T01:13:10.519Z,78.40
2018-07-03T01:13:41.723Z,78.71
2018-07-03T01:14:12.906Z,78.82
2018-07-03T01:14:44.091Z,79.82
2018-07-03T01:15:15.309Z,78.75
2018-07-03T01:15:46.487Z,78.76
2018-07-03T01:16:17.666Z,78.78
2018-07-03T01:16:48.836Z,79.04
2018-07-03T01:17:20.024Z,79.11
2018-07-03T01:17:51.195Z,79.52
2018-07-03T01:18:22.376Z,78.80
2018-07-03T01:18:53.601Z,79.60
2018-07-03T01:19:24.820Z,79.29
2018-07-03T01:19:56.049Z,79.32
2018-07-03T01:20:27.239Z,79.48
2018-07-03T01:20:58.457Z,78.94
2018-07-03T01:21:29.677Z,78.99
2018-07-03T01:22:01.128Z,78.93
2018-07-03T01:22:32.317Z,79.00
2018-07-03T01:23:03.530Z,78.58
2018-07-03T01:23:34.752Z,79.66
2018-07-03T01:24:05.942Z,79.32
2018-07-03T01:24:37.120Z,78.83
2018-07-03T01:25:09.327Z,78.42
2018-07-03T01:25:40.496Z,79.56
2018-07-03T01:26:11.683Z,79.05
2018-07-03T01:26:42.864Z,79.40
2018-07-03T01:27:14.125Z,79.10
2018-07-03T01:27:45.353Z,79.86
2018-07-03T01:28:16.604Z,80.77
2018-07-03T01:28:47.861Z,79.65
2018-07-03T01:29:20.021Z,79.55
2018-07-03T01:29:51.200Z,80.64
2018-07-03T01:30:22.428Z,79.97
2018-07-03T01:30:53.613Z,80.33
2018-07-03T01:31:24.797Z,79.94
2018-07-03T01:31:55.992Z,80.12
2018-07-03T01:32:27.159Z,80.12
2018-07-03T01:32:59.493Z,80.02
2018-07-03T01:33:30.713Z,80.07
2018-07-03T01:34:01.876Z,80.47
2018-07-03T01:34:33.105Z,81.57
2018-07-03T01:35:04.309Z,81.08
2018-07-03T01:35:35.550Z,81.28
2018-07-03T01:36:06.774Z,81.02
2018-07-03T01:36:38.013Z,81.75
2018-07-03T01:37:09.220Z,80.95
2018-07-03T01:37:40.400Z,80.89
2018-07-03T01:38:11.620Z,80.95
2018-07-03T01:38:42.868Z,80.64
2018-07-03T01:39:14.052Z,81.55
2018-07-03T01:39:45.241Z,81.62
2018-07-03T01:40:16.428Z,81.13
2018-07-03T01:40:47.651Z,82.16
2018-07-03T01:41:18.881Z,81.65
2018-07-03T01:41:50.059Z,81.96
2018-07-03T01:42:21.392Z,82.66
2018-07-03T01:42:52.620Z,82.67
2018-07-03T01:43:23.860Z,81.82
2018-07-03T01:43:55.039Z,82.03
2018-07-03T01:44:26.204Z,82.00
2018-07-03T01:44:57.429Z,82.70
2018-07-03T01:45:28.605Z,81.96
2018-07-03T01:45:59.873Z,82.15
2018-07-03T01:46:31.053Z,82.73
2018-07-03T01:47:02.228Z,82.59
2018-07-03T01:47:33.997Z,82.86
2018-07-03T01:48:05.181Z,82.76
2018-07-03T01:48:36.382Z,82.18
2018-07-03T01:49:07.568Z,82.32
2018-07-03T01:49:38.751Z,82.76
2018-07-03T01:50:10.009Z,82.52
2018-07-03T01:50:41.192Z,81.91
2018-07-03T01:51:12.413Z,82.49
2018-07-03T01:51:43.652Z,82.26
2018-07-03T01:52:14.897Z,81.96
2018-07-03T01:52:46.089Z,82.37
2018-07-03T01:53:17.268Z,81.35
2018-07-03T01:53:48.443Z,81.83
2018-07-03T01:54:19.668Z,81.78
2018-07-03T01:54:50.944Z,81.11
2018-07-03T01:55:22.173Z,81.09
2018-07-03T01:55:53.352Z,81.93
2018-07-03T01:56:24.531Z,82.16
2018-07-03T01:56:55.749Z,82.08
2018-07-03T01:57:26.952Z,82.68
2018-07-03T01:57:58.185Z,81.93
2018-07-03T01:58:29.359Z,82.20
2018-07-03T01:59:00.544Z,82.66
2018-07-03T01:59:32.061Z,82.59
2018-07-03T02:00:03.259Z,82.49
2018-07-03T02:00:34.534Z,82.50
2018-07-03T02:01:06.875Z,82.66
2018-07-03T02:01:38.060Z,82.37
2018-07-03T02:02:09.280Z,82.69
2018-07-03T02:02:40.464Z,82.33
2018-07-03T02:03:11.693Z,82.55
2018-07-03T02:03:42.914Z,83.60
2018-07-03T02:04:14.353Z,83.69
2018-07-03T02:04:45.592Z,83.53
2018-07-03T02:05:16.903Z,83.25
2018-07-03T02:05:48.132Z,82.57
2018-07-03T02:06:19.360Z,82.56
2018-07-03T02:06:50.582Z,82.41
2018-07-03T02:07:21.815Z,82.15
2018-07-03T02:07:53.112Z,82.77
2018-07-03T02:08:24.359Z,82.83
2018-07-03T02:08:55.549Z,82.72
2018-07-03T02:09:26.803Z,81.45
2018-07-03T02:09:57.985Z,82.42
2018-07-03T02:10:29.228Z,82.81
2018-07-03T02:11:00.467Z,82.88
2018-07-03T02:11:31.649Z,82.66
2018-07-03T02:12:02.846Z,82.37
2018-07-03T02:12:34.028Z,82.48
2018-07-03T02:13:05.204Z,83.28
2018-07-03T02:13:36.486Z,82.77
2018-07-03T02:14:07.669Z,82.88
2018-07-03T02:14:38.864Z,82.88
2018-07-03T02:15:10.044Z,83.55
2018-07-03T02:15:41.273Z,83.68
2018-07-03T02:16:12.521Z,83.33
2018-07-03T02:16:43.731Z,83.23
2018-07-03T02:17:14.909Z,83.86
2018-07-03T02:17:46.150Z,83.28
2018-07-03T02:18:17.346Z,83.32
2018-07-03T02:18:48.574Z,83.71
2018-07-03T02:19:19.778Z,84.29
2018-07-03T02:19:50.960Z,83.79
2018-07-03T02:20:22.141Z,84.03
2018-07-03T02:20:53.364Z,84.16
2018-07-03T02:21:24.540Z,84.43
2018-07-03T02:21:55.748Z,84.13
2018-07-03T02:22:26.937Z,84.11
2018-07-03T02:22:58.174Z,83.96
2018-07-03T02:23:29.352Z,83.93
2018-07-03T02:24:00.580Z,84.60
2018-07-03T02:24:31.808Z,83.98
2018-07-03T02:25:02.997Z,84.16
2018-07-03T02:25:34.172Z,84.12
2018-07-03T02:26:05.405Z,83.55
2018-07-03T02:26:36.591Z,84.02
2018-07-03T02:27:07.817Z,84.08
2018-07-03T02:27:38.998Z,84.23
2018-07-03T02:28:10.184Z,84.24
2018-07-03T02:28:41.372Z,84.46
2018-07-03T02:29:12.565Z,83.96
2018-07-03T02:29:43.736Z,84.22
2018-07-03T02:30:15.001Z,83.93
2018-07-03T02:30:46.196Z,83.77
2018-07-03T02:31:17.370Z,83.55
2018-07-03T02:31:48.548Z,83.87
2018-07-03T02:32:19.787Z,83.82
2018-07-03T02:32:50.985Z,84.22
2018-07-03T02:33:22.172Z,83.95
2018-07-03T02:33:53.346Z,83.81
2018-07-03T02:34:24.620Z,83.70
2018-07-03T02:34:55.940Z,83.77
2018-07-03T02:35:27.183Z,83.03
2018-07-03T02:35:58.441Z,83.69
2018-07-03T02:36:29.638Z,83.76
2018-07-03T02:37:00.836Z,83.21
2018-07-03T02:37:32.008Z,84.04
2018-07-03T02:38:03.241Z,83.32
2018-07-03T02:38:34.444Z,83.78
2018-07-03T02:39:05.670Z,84.14
2018-07-03T02:39:36.861Z,83.70
2018-07-03T02:40:08.075Z,84.38
2018-07-03T02:40:39.252Z,84.58
2018-07-03T02:41:10.993Z,84.14
2018-07-03T02:41:42.173Z,84.08
2018-07-03T02:42:13.349Z,84.69
2018-07-03T02:42:44.646Z,84.15
2018-07-03T02:43:15.880Z,84.39
2018-07-03T02:43:47.149Z,84.66
2018-07-03T02:44:18.346Z,84.65
2018-07-03T02:44:49.585Z,84.94
2018-07-03T02:45:21.488Z,84.26
2018-07-03T02:45:52.757Z,83.89
2018-07-03T02:46:23.947Z,84.07
2018-07-03T02:46:55.128Z,84.75
2018-07-03T02:47:26.353Z,84.25
2018-07-03T02:47:57.542Z,84.43
2018-07-03T02:48:28.716Z,83.61
2018-07-03T02:48:59.930Z,83.50
2018-07-03T02:49:31.109Z,84.20
2018-07-03T02:50:02.305Z,83.94
2018-07-03T02:50:33.548Z,83.60
2018-07-03T02:51:04.777Z,83.80
2018-07-03T02:51:36.013Z,83.21
2018-07-03T02:52:07.293Z,83.53
2018-07-03T02:52:38.489Z,83.03
2018-07-03T02:53:09.715Z,83.11
2018-07-03T02:53:40.997Z,83.05
2018-07-03T02:54:12.176Z,83.71
2018-07-03T02:54:43.401Z,83.87
2018-07-03T02:55:14.595Z,83.30
2018-07-03T02:55:45.765Z,83.88
2018-07-03T02:56:16.948Z,83.87
2018-07-03T02:56:48.173Z,83.26
2018-07-03T02:57:19.360Z,83.46
2018-07-03T02:57:50.573Z,83.83
2018-07-03T02:58:21.750Z,83.34
2018-07-03T02:58:52.921Z,84.14
2018-07-03T02:59:24.139Z,84.23
2018-07-03T02:59:55.320Z,84.32
2018-07-03T03:00:26.505Z,83.51
2018-07-03T03:00:57.687Z,84.33
2018-07-03T03:01:28.863Z,83.93
2018-07-03T03:02:00.048Z,84.02
2018-07-03T03:02:31.274Z,84.05
2018-07-03T03:03:02.485Z,84.76
2018-07-03T03:03:33.721Z,84.70
2018-07-03T03:04:04.957Z,84.07
2018-07-03T03:04:36.140Z,84.35
2018-07-03T03:05:07.362Z,84.97
2018-07-03T03:05:38.581Z,84.60
2018-07-03T03:06:09.757Z,84.83
2018-07-03T03:06:40.964Z,84.75
2018-07-03T03:07:12.145Z,84.52
2018-07-03T03:07:43.324Z,85.25
2018-07-03T03:08:14.588Z,84.67
2018-07-03T03:08:46.085Z,85.18
2018-07-03T03:09:17.266Z,84.79
2018-07-03T03:09:48.446Z,84.40
2018-07-03T03:10:19.631Z,85.09
2018-07-03T03:10:50.921Z,84.60
2018-07-03T03:11:22.110Z,84.10
2018-07-03T03:11:53.324Z,84.56
2018-07-03T03:12:24.507Z,83.86
2018-07-03T03:12:55.685Z,84.42
2018-07-03T03:13:26.921Z,83.84
2018-07-03T03:13:58.114Z,84.03
2018-07-03T03:14:29.361Z,84.29
2018-07-03T03:15:01.083Z,84.04
2018-07-03T03:15:32.257Z,83.91
2018-07-03T03:16:03.478Z,83.18
2018-07-03T03:16:34.656Z,83.71
2018-07-03T03:17:05.841Z,83.82
2018-07-03T03:17:37.051Z,82.77
2018-07-03T03:18:08.285Z,82.73
2018-07-03T03:18:39.475Z,83.37
2018-07-03T03:19:11.509Z,82.83
2018-07-03T03:19:42.760Z,83.33
2018-07-03T03:20:14.022Z,82.93
2018-07-03T03:20:45.201Z,83.14
2018-07-03T03:21:16.425Z,82.50
2018-07-03T03:21:47.656Z,82.31
2018-07-03T03:22:18.892Z,81.71
2018-07-03T03:22:50.100Z,81.82
2018-07-03T03:23:21.300Z,81.25
2018-07-03T03:23:52.491Z,80.89
2018-07-03T03:24:23.670Z,80.42
2018-07-03T03:24:54.906Z,79.40
2018-07-03T03:25:26.153Z,79.77
2018-07-03T03:25:57.411Z,79.00
2018-07-03T03:26:28.692Z,79.13
2018-07-03T03:26:59.880Z,78.87
2018-07-03T03:27:31.489Z,78.27
2018-07-03T03:28:02.727Z,77.09
2018-07-03T03:28:33.897Z,76.80
2018-07-03T03:29:05.084Z,75.68
2018-07-03T03:29:36.266Z,75.91
2018-07-03T03:30:07.455Z,74.68
2018-07-03T03:30:38.632Z,75.04
2018-07-03T03:31:10.378Z,74.41
2018-07-03T03:31:41.603Z,73.25
2018-07-03T03:32:12.883Z,73.40
2018-07-03T03:32:45.243Z,72.88
2018-07-03T03:33:16.468Z,72.96
2018-07-03T03:33:47.670Z,72.12
2018-07-03T03:34:18.849Z,72.12
2018-07-03T03:34:50.058Z,71.73
2018-07-03T03:35:21.232Z,71.09
2018-07-03T03:35:52.549Z,70.69
2018-07-03T03:36:23.784Z,69.81
2018-07-03T03:36:55.033Z,70.65
2018-07-03T03:37:26.248Z,69.95
2018-07-03T03:37:57.431Z,70.44
2018-07-03T03:38:28.621Z,69.98
2018-07-03T03:38:59.865Z,69.46
2018-07-03T03:39:31.053Z,69.71
2018-07-03T03:40:02.249Z,69.30
2018-07-03T03:40:33.493Z,69.99
2018-07-03T03:41:04.676Z,68.89
2018-07-03T03:41:35.909Z,69.19
2018-07-03T03:42:07.101Z,68.74
2018-07-03T03:42:38.324Z,67.61
2018-07-03T03:43:09.517Z,67.10
2018-07-03T03:43:40.688Z,65.42
2018-07-03T03:44:11.871Z,66.90
2018-07-03T03:44:43.103Z,66.93
2018-07-03T03:45:14.299Z,66.00
2018-07-03T03:45:45.483Z,66.66
2018-07-03T03:46:16.665Z,65.49
2018-07-03T03:46:47.853Z,66.48
2018-07-03T03:47:19.081Z,66.02
2018-07-03T03:47:51.428Z,65.49
2018-07-03T03:48:22.621Z,65.10
2018-07-03T03:48:54.695Z,64.32
2018-07-03T03:49:26.089Z,64.75
2018-07-03T03:49:57.334Z,64.91
2018-07-03T03:50:28.622Z,63.35
2018-07-03T03:50:59.877Z,63.55
2018-07-03T03:51:31.125Z,63.44
2018-07-03T03:52:02.308Z,63.52
2018-07-03T03:52:33.485Z,63.37
2018-07-03T03:53:04.765Z,61.81
2018-07-03T03:53:35.964Z,61.37
2018-07-03T03:54:07.151Z,62.47
2018-07-03T03:54:38.412Z,61.35
2018-07-03T03:55:09.599Z,61.79
2018-07-03T03:55:40.777Z,60.93
2018-07-03T03:56:12.005Z,61.19
2018-07-03T03:56:43.205Z,60.62
2018-07-03T03:57:14.433Z,60.37
2018-07-03T03:57:45.670Z,59.90
2018-07-03T03:58:16.928Z,61.55
2018-07-03T03:58:48.180Z,61.25
2018-07-03T03:59:19.404Z,61.61
2018-07-03T03:59:50.596Z,61.20
2018-07-03T04:00:21.818Z,61.80
2018-07-03T04:00:53.065Z,61.87
2018-07-03T04:01:24.217Z,61.89
2018-07-03T04:01:55.439Z,62.25
2018-07-03T04:02:26.619Z,63.50
2018-07-03T04:02:57.852Z,63.03
2018-07-03T04:03:29.043Z,62.22
2018-07-03T04:04:00.257Z,62.37
2018-07-03T04:04:31.433Z,60.94
2018-07-03T04:05:02.666Z,60.68
2018-07-03T04:05:33.993Z,59.87
2018-07-03T04:06:05.815Z,60.36
2018-07-03T04:06:37.591Z,59.48
2018-07-03T04:07:09.853Z,58.70
2018-07-03T04:07:41.060Z,58.72
2018-07-03T04:08:12.258Z,58.07
2018-07-03T04:08:43.461Z,59.06
2018-07-03T04:09:14.701Z,58.04
2018-07-03T04:09:45.897Z,58.69
2018-07-03T04:10:17.089Z,57.60
2018-07-03T04:10:48.378Z,58.48
2018-07-03T04:11:19.580Z,58.95
2018-07-03T04:11:50.764Z,58.97
2018-07-03T04:12:21.944Z,59.19
2018-07-03T04:12:53.123Z,59.50
2018-07-03T04:13:24.319Z,59.50
2018-07-03T04:13:55.509Z,59.06
2018-07-03T04:14:26.750Z,58.66
2018-07-03T04:14:58.025Z,59.30
2018-07-03T04:15:29.231Z,58.68
2018-07-03T04:16:00.506Z,57.22
2018-07-03T04:16:31.753Z,57.37
2018-07-03T04:17:02.955Z,56.26
2018-07-03T04:17:34.808Z,57.21
2018-07-03T04:18:06.035Z,56.97
2018-07-03T04:18:37.269Z,58.21
2018-07-03T04:19:08.452Z,57.68
2018-07-03T04:19:39.685Z,57.11
2018-07-03T04:20:10.877Z,57.64
2018-07-03T04:20:42.101Z,58.15
2018-07-03T04:21:13.281Z,58.89
2018-07-03T04:21:44.513Z,58.90
2018-07-03T04:22:15.705Z,58.80
2018-07-03T04:22:46.954Z,59.07
2018-07-03T04:23:18.143Z,59.64
2018-07-03T04:23:49.365Z,58.41
2018-07-03T04:24:20.608Z,58.61
2018-07-03T04:24:51.832Z,58.81
2018-07-03T04:25:23.020Z,59.49
2018-07-03T04:25:54.201Z,59.09
2018-07-03T04:26:25.428Z,59.36
2018-07-03T04:26:56.664Z,59.34
2018-07-03T04:27:27.896Z,61.30
2018-07-03T04:27:59.081Z,60.85
2018-07-03T04:28:30.309Z,59.86
2018-07-03T04:29:01.534Z,59.61
2018-07-03T04:29:32.981Z,60.37
2018-07-03T04:30:04.206Z,61.03
2018-07-03T04:30:35.457Z,60.65
2018-07-03T04:31:06.648Z,61.44
2018-07-03T04:31:37.923Z,61.88
2018-07-03T04:32:09.337Z,60.70
2018-07-03T04:32:40.519Z,61.91
2018-07-03T04:33:11.706Z,61.46
2018-07-03T04:33:42.950Z,60.74
2018-07-03T04:34:14.181Z,59.41
2018-07-03T04:34:45.961Z,58.93
2018-07-03T04:35:17.144Z,58.29
2018-07-03T04:35:48.377Z,56.75
2018-07-03T04:36:19.708Z,56.34
2018-07-03T04:36:50.976Z,55.52
2018-07-03T04:37:22.223Z,55.01
2018-07-03T04:37:53.429Z,53.76
2018-07-03T04:38:24.608Z,53.59
2018-07-03T04:38:55.796Z,53.77
2018-07-03T04:39:26.996Z,53.64
2018-07-03T04:39:58.238Z,53.70
2018-07-03T04:40:29.478Z,54.05
2018-07-03T04:41:00.716Z,54.01
2018-07-03T04:41:31.941Z,53.75
2018-07-03T04:42:03.150Z,53.64
2018-07-03T04:42:34.336Z,53.78
2018-07-03T04:43:05.517Z,53.47
2018-07-03T04:43:36.704Z,52.70
2018-07-03T04:44:07.907Z,51.75
2018-07-03T04:44:39.145Z,51.57
2018-07-03T04:45:10.332Z,51.64
2018-07-03T04:45:41.521Z,51.55
2018-07-03T04:46:12.754Z,52.06
2018-07-03T04:46:43.986Z,51.76
2018-07-03T04:47:15.232Z,50.26
2018-07-03T04:47:46.436Z,50.24
2018-07-03T04:48:17.624Z,49.38
2018-07-03T04:48:48.842Z,49.09
2018-07-03T04:49:20.054Z,49.02
2018-07-03T04:49:51.296Z,49.46
2018-07-03T04:50:22.529Z,49.66
2018-07-03T04:50:53.789Z,49.79
2018-07-03T04:51:24.977Z,49.76
2018-07-03T04:51:56.262Z,49.87
2018-07-03T04:52:27.452Z,50.13
2018-07-03T04:52:58.669Z,49.93
2018-07-03T04:53:29.959Z,49.92
2018-07-03T04:54:01.155Z,50.05
2018-07-03T04:54:32.378Z,50.68
2018-07-03T04:55:03.559Z,50.76
2018-07-03T04:55:34.800Z,50.46
2018-07-03T04:56:06.005Z,50.51
2018-07-03T04:56:37.188Z,50.61
2018-07-03T04:57:08.413Z,50.34
2018-07-03T04:57:39.645Z,49.90
2018-07-03T04:58:10.833Z,49.38
2018-07-03T04:58:42.017Z,49.33
2018-07-03T04:59:13.207Z,48.61
2018-07-03T04:59:44.384Z,47.80
2018-07-03T05:00:16.328Z,47.64
2018-07-03T05:00:47.521Z,47.54
2018-07-03T05:01:18.701Z,47.53
2018-07-03T05:01:49.872Z,47.29
2018-07-03T05:02:21.077Z,46.90
2018-07-03T05:02:52.247Z,46.88
2018-07-03T05:03:23.434Z,46.98
2018-07-03T05:03:54.659Z,46.95
2018-07-03T05:04:25.901Z,46.54
2018-07-03T05:04:57.135Z,46.57
2018-07-03T05:05:28.333Z,47.23
2018-07-03T05:05:59.599Z,46.77
2018-07-03T05:06:30.866Z,46.56
2018-07-03T05:07:02.057Z,46.31
2018-07-03T05:07:33.244Z,45.68
2018-07-03T05:08:04.474Z,45.00
2018-07-03T05:08:35.663Z,44.60
2018-07-03T05:09:06.869Z,44.38
2018-07-03T05:09:38.742Z,43.38
2018-07-03T05:10:10.030Z,43.02
2018-07-03T05:10:41.286Z,43.29
2018-07-03T05:11:12.475Z,43.82
2018-07-03T05:12:21.124Z,43.90
2018-07-03T05:12:52.948Z,43.74
2018-07-03T05:13:24.138Z,43.65
2018-07-03T05:13:55.353Z,43.38
2018-07-03T05:14:27.252Z,43.18
2018-07-03T05:14:58.452Z,43.09
2018-07-03T05:15:29.646Z,42.83
2018-07-03T05:16:01.493Z,42.77
2018-07-03T05:16:33.582Z,42.44
2018-07-03T05:17:04.823Z,42.38
2018-07-03T05:17:36.337Z,42.08
2018-07-03T05:18:07.543Z,41.58
2018-07-03T05:18:38.757Z,41.58
2018-07-03T05:19:09.980Z,41.80
2018-07-03T05:19:41.160Z,42.20
2018-07-03T05:20:12.350Z,42.30
2018-07-03T05:20:43.540Z,42.74
2018-07-03T05:21:14.727Z,43.02
2018-07-03T05:21:45.905Z,42.96
2018-07-03T05:22:17.092Z,42.09
2018-07-03T05:22:48.307Z,43.07
2018-07-03T05:23:19.484Z,43.51
2018-07-03T05:23:50.696Z,44.36
2018-07-03T05:24:21.917Z,44.14
2018-07-03T05:24:53.100Z,44.09
2018-07-03T05:25:24.326Z,44.17
2018-07-03T05:25:55.554Z,44.09
2018-07-03T05:26:26.728Z,43.92
2018-07-03T05:26:57.959Z,43.59
2018-07-03T05:27:29.202Z,44.26
2018-07-03T05:28:00.401Z,43.70
2018-07-03T05:28:31.624Z,43.37
2018-07-03T05:29:02.808Z,43.14
2018-07-03T05:29:34.013Z,43.52
2018-07-03T05:30:05.202Z,43.27
2018-07-03T05:30:36.436Z,43.23
2018-07-03T05:31:07.671Z,43.11
2018-07-03T05:31:38.880Z,43.62
2018-07-03T05:32:10.061Z,43.64
2018-07-03T05:32:41.305Z,43.46
2018-07-03T05:33:12.541Z,43.08
2018-07-03T05:33:43.785Z,42.90
2018-07-03T05:34:15.034Z,42.58
2018-07-03T05:34:47.078Z,42.15
2018-07-03T05:35:18.269Z,42.27
2018-07-03T05:35:49.443Z,41.69
2018-07-03T05:36:20.671Z,41.56
2018-07-03T05:36:51.927Z,41.60
2018-07-03T05:37:23.117Z,41.23
2018-07-03T05:37:54.296Z,41.14
2018-07-03T05:38:25.517Z,41.15
2018-07-03T05:38:56.874Z,41.16
2018-07-03T05:39:28.124Z,41.29
2018-07-03T05:39:59.313Z,41.54
2018-07-03T05:40:30.512Z,41.23
2018-07-03T05:41:01.703Z,41.75
2018-07-03T05:41:32.937Z,41.96
2018-07-03T05:42:04.125Z,43.00
2018-07-03T05:42:35.310Z,43.07
2018-07-03T05:43:06.591Z,43.22
2018-07-03T05:43:37.801Z,42.56
2018-07-03T05:44:09.985Z,42.56
2018-07-03T05:44:41.217Z,42.59
2018-07-03T05:45:12.469Z,42.45
2018-07-03T05:45:43.724Z,42.26
2018-07-03T05:46:14.977Z,42.12
2018-07-03T05:46:46.230Z,41.86
2018-07-03T05:47:17.452Z,42.61
2018-07-03T05:47:48.937Z,42.66
2018-07-03T05:48:20.123Z,43.17
2018-07-03T05:48:51.375Z,43.41
2018-07-03T05:49:22.634Z,43.39
2018-07-03T05:49:53.886Z,43.57
2018-07-03T05:50:26.079Z,44.16
2018-07-03T05:50:57.362Z,44.39
2018-07-03T05:51:28.784Z,43.44
2018-07-03T05:51:59.842Z,43.78
2018-07-03T05:52:31.054Z,44.51
2018-07-03T05:53:02.305Z,43.85
2018-07-03T05:53:33.517Z,43.93
2018-07-03T05:54:04.745Z,43.95
2018-07-03T05:54:35.949Z,43.87
2018-07-03T05:55:07.145Z,43.84
2018-07-03T05:55:38.360Z,43.19
2018-07-03T05:56:09.620Z,43.65
2018-07-03T05:56:40.827Z,42.54
2018-07-03T05:57:12.016Z,43.99
2018-07-03T05:57:43.218Z,42.91
2018-07-03T05:58:14.616Z,44.10
2018-07-03T05:58:45.641Z,43.44
2018-07-03T05:59:16.878Z,44.75
2018-07-03T05:59:48.113Z,44.41
2018-07-03T06:00:19.361Z,45.33
2018-07-03T06:00:50.553Z,44.81
2018-07-03T06:01:21.781Z,44.97
2018-07-03T06:01:52.983Z,44.79
2018-07-03T06:02:24.170Z,44.71
2018-07-03T06:02:55.352Z,44.92
2018-07-03T06:03:26.594Z,44.66
2018-07-03T06:03:57.884Z,43.46
2018-07-03T06:04:29.120Z,42.94
2018-07-03T06:05:00.361Z,42.65
2018-07-03T06:05:32.112Z,42.43
2018-07-03T06:06:03.326Z,43.12
2018-07-03T06:06:34.561Z,42.86
2018-07-03T06:07:05.767Z,43.54
2018-07-03T06:07:36.957Z,43.88
2018-07-03T06:08:08.136Z,43.32
2018-07-03T06:08:39.380Z,43.73
2018-07-03T06:09:10.628Z,44.30
2018-07-03T06:09:41.812Z,45.58
2018-07-03T06:10:13.008Z,44.54
2018-07-03T06:10:44.220Z,45.21
2018-07-03T06:11:15.413Z,45.54
2018-07-03T06:11:46.595Z,44.40
2018-07-03T06:12:17.776Z,44.00
2018-07-03T06:12:48.989Z,44.61
2018-07-03T06:13:20.196Z,44.33
2018-07-03T06:13:51.442Z,44.04
2018-07-03T06:14:22.736Z,44.14
2018-07-03T06:14:53.965Z,44.22
2018-07-03T06:15:25.209Z,43.50
2018-07-03T06:15:56.470Z,43.26
2018-07-03T06:16:27.680Z,43.09
2018-07-03T06:16:58.927Z,43.21
2018-07-03T06:17:33.545Z,43.49
2018-07-03T06:18:04.749Z,43.82
2018-07-03T06:18:35.945Z,43.37
2018-07-03T06:19:07.742Z,43.23
2018-07-03T06:19:38.966Z,42.74
2018-07-03T06:20:10.277Z,42.65
2018-07-03T06:20:41.704Z,42.81
2018-07-03T06:21:12.884Z,44.04
2018-07-03T06:21:44.114Z,43.44
2018-07-03T06:22:15.309Z,42.79
2018-07-03T06:22:46.530Z,41.90
2018-07-03T06:23:17.696Z,42.26
2018-07-03T06:23:48.868Z,41.82
2018-07-03T06:24:20.041Z,41.83
2018-07-03T06:24:51.836Z,41.82
2018-07-03T06:25:23.192Z,41.32
2018-07-03T06:25:54.296Z,41.91
2018-07-03T06:26:25.529Z,42.41
2018-07-03T06:26:56.785Z,41.77
2018-07-03T06:27:27.969Z,41.04
2018-07-03T06:27:59.185Z,41.99
2018-07-03T06:28:30.428Z,42.14
2018-07-03T06:29:01.734Z,42.89
2018-07-03T06:29:32.895Z,42.29
2018-07-03T06:30:04.077Z,42.83
2018-07-03T06:30:35.499Z,42.51
2018-07-03T06:31:06.684Z,42.15
2018-07-03T06:31:37.876Z,41.79
2018-07-03T06:32:09.101Z,41.86
2018-07-03T06:32:40.289Z,42.24
2018-07-03T06:33:11.700Z,42.23
2018-07-03T06:33:42.743Z,41.97
2018-07-03T06:34:13.937Z,42.48
2018-07-03T06:34:45.129Z,42.36
2018-07-03T06:35:17.092Z,42.07
2018-07-03T06:35:48.374Z,42.96
2018-07-03T06:36:19.625Z,42.26
2018-07-03T06:36:50.801Z,42.44
2018-07-03T06:37:22.065Z,42.19
2018-07-03T06:37:53.214Z,42.08
2018-07-03T06:38:24.402Z,41.55
2018-07-03T06:38:55.622Z,40.75
2018-07-03T06:39:26.796Z,40.54
2018-07-03T06:39:57.976Z,41.17
2018-07-03T06:40:29.160Z,41.77
2018-07-03T06:41:00.445Z,40.82
2018-07-03T06:41:31.678Z,40.69
2018-07-03T06:42:02.869Z,41.05
2018-07-03T06:42:34.137Z,40.75
2018-07-03T06:43:05.993Z,41.10